South Newbury, New Hampshire
Current Conditions -  °F | °C
As of 2:51 AM on Thursday 27 Nov 2014 (Local Time) from KCON Reporting Station
Light Snow Light Snow  
Wind Chill: 23°   Ceiling: NA
Heat Index: 31°   Visibility: 8mi
Dew Point: 30°   Wind: 9mph
Humidity: 96%   Direction: 320°NW
Pressure: 29.77"   Gusts: NA
Location:  43.3°N, 72°W
Report Text: KCON 270751Z AUTO 32008KT 8SM -SN M01/M01 A2977 RMK AO2 SNB02E33B50 SLP083 P0001 T10061011 $
Loading
Personal Weather Stations






























Interactive Weather Map New forecast layout! Learn more

10-Day Weather Forecast

Advertisements
Track Severe Weather on mobile